createdAt,value
2022-07-27T00:04:32.401Z,16.93
2022-07-27T00:09:37.725Z,16.86
2022-07-27T00:20:36.280Z,16.70
2022-07-27T00:25:41.370Z,16.71
2022-07-27T00:30:46.450Z,16.67
2022-07-27T00:35:54.062Z,16.63
2022-07-27T00:40:59.425Z,16.72
2022-07-27T00:46:04.530Z,16.68
2022-07-27T00:51:14.067Z,16.66
2022-07-27T00:56:19.424Z,16.60
2022-07-27T01:01:24.381Z,16.61
2022-07-27T01:06:32.098Z,16.58
2022-07-27T01:11:37.011Z,16.52
2022-07-27T01:16:42.255Z,16.43
2022-07-27T01:21:49.859Z,16.42
2022-07-27T01:26:54.861Z,16.32
2022-07-27T01:32:00.443Z,16.30
2022-07-27T01:37:08.815Z,16.34
2022-07-27T01:42:16.567Z,16.26
2022-07-27T01:47:21.675Z,16.21
2022-07-27T01:52:29.082Z,16.18
2022-07-27T01:57:34.050Z,16.12
2022-07-27T02:02:39.050Z,16.12
2022-07-27T02:07:46.582Z,15.98
2022-07-27T02:12:51.410Z,15.95
2022-07-27T02:17:57.187Z,15.86
2022-07-27T02:23:05.125Z,15.88
2022-07-27T02:28:10.159Z,15.85
2022-07-27T02:33:15.304Z,15.74
2022-07-27T02:38:24.002Z,15.76
2022-07-27T02:43:28.846Z,15.66
2022-07-27T02:48:34.869Z,15.64
2022-07-27T02:53:42.430Z,15.56
2022-07-27T02:58:47.373Z,15.57
2022-07-27T03:03:52.350Z,15.46
2022-07-27T03:08:59.936Z,15.40
2022-07-27T03:14:05.026Z,15.34
2022-07-27T03:19:10.292Z,15.29
2022-07-27T03:24:17.998Z,15.29
2022-07-27T03:29:22.993Z,15.24
2022-07-27T03:34:28.088Z,15.11
2022-07-27T03:39:35.712Z,15.11
2022-07-27T03:44:40.623Z,15.03
2022-07-27T03:49:45.659Z,14.98
2022-07-27T03:54:53.102Z,14.90
2022-07-27T03:59:58.081Z,14.90
2022-07-27T04:05:03.244Z,14.84
2022-07-27T04:10:12.487Z,14.87
2022-07-27T04:15:19.546Z,14.84
2022-07-27T04:20:24.405Z,14.84
2022-07-27T04:25:32.855Z,14.88
2022-07-27T04:30:37.912Z,14.76
2022-07-27T04:35:42.913Z,14.78
2022-07-27T04:40:52.765Z,14.82
2022-07-27T04:46:01.345Z,14.84
2022-07-27T04:51:06.385Z,14.85
2022-07-27T04:56:14.994Z,14.90
2022-07-27T05:01:23.810Z,14.91
2022-07-27T05:06:28.746Z,14.97
2022-07-27T05:11:36.264Z,15.01
2022-07-27T05:16:43.080Z,15.02
2022-07-27T05:21:48.002Z,15.01
2022-07-27T05:26:55.938Z,15.02
2022-07-27T05:32:00.945Z,15.03
2022-07-27T05:37:05.999Z,15.07
2022-07-27T05:42:14.355Z,15.08
2022-07-27T05:47:19.394Z,15.08
2022-07-27T05:52:24.261Z,15.09
2022-07-27T05:57:31.769Z,15.09
2022-07-27T06:02:37.334Z,15.13
2022-07-27T06:07:54.676Z,15.18
2022-07-27T06:13:02.913Z,15.23
2022-07-27T06:18:13.899Z,15.23
2022-07-27T06:23:18.846Z,15.32
2022-07-27T06:28:26.906Z,15.38
2022-07-27T06:33:31.938Z,15.45
2022-07-27T06:38:37.853Z,15.56
2022-07-27T06:43:45.429Z,15.62
2022-07-27T06:48:50.344Z,15.77
2022-07-27T06:53:55.952Z,15.83
2022-07-27T06:59:03.567Z,15.89
2022-07-27T07:04:08.778Z,15.94
2022-07-27T07:09:14.470Z,16.14
2022-07-27T07:14:22.791Z,16.28
2022-07-27T07:19:27.843Z,16.30
2022-07-27T07:24:34.039Z,16.28
2022-07-27T07:29:41.556Z,16.31
2022-07-27T07:34:46.508Z,16.33
2022-07-27T07:39:51.388Z,16.44
2022-07-27T07:44:59.206Z,16.32
2022-07-27T07:50:04.128Z,16.38
2022-07-27T07:55:10.695Z,16.51
2022-07-27T08:00:20.167Z,16.67
2022-07-27T08:05:25.954Z,16.75
2022-07-27T08:10:30.987Z,16.86
2022-07-27T08:15:38.959Z,16.89
2022-07-27T08:20:44.260Z,17.08
2022-07-27T08:25:54.621Z,17.15
2022-07-27T08:31:02.715Z,17.18
2022-07-27T08:36:20.541Z,17.31
2022-07-27T08:41:30.093Z,17.39
2022-07-27T08:46:40.887Z,17.56
2022-07-27T08:51:47.681Z,17.72
2022-07-27T08:56:52.935Z,17.65
2022-07-27T09:02:03.164Z,17.35
2022-07-27T09:07:08.616Z,17.51
2022-07-27T09:12:14.073Z,17.78
2022-07-27T09:17:48.670Z,17.93
2022-07-27T09:22:56.451Z,18.47
2022-07-27T09:28:02.339Z,18.14
2022-07-27T09:33:10.758Z,18.09
2022-07-27T09:38:22.593Z,18.34
2022-07-27T09:44:27.644Z,18.87
2022-07-27T09:48:56.472Z,19.12
2022-07-27T09:54:09.165Z,19.08
2022-07-27T09:59:21.911Z,19.07
2022-07-27T10:04:29.671Z,19.38
2022-07-27T10:09:35.133Z,19.66
2022-07-27T10:14:40.818Z,19.77
2022-07-27T10:19:51.156Z,19.71
2022-07-27T10:25:02.522Z,19.96
2022-07-27T10:30:09.562Z,19.98
2022-07-27T10:35:38.668Z,19.62
2022-07-27T10:40:44.663Z,19.61
2022-07-27T10:46:01.726Z,19.43
2022-07-27T10:51:12.949Z,19.87
2022-07-27T10:56:48.203Z,19.84
2022-07-27T11:01:59.673Z,19.42
2022-07-27T11:12:33.387Z,19.47
2022-07-27T11:28:46.653Z,19.78
2022-07-27T11:34:00.315Z,19.89
2022-07-27T11:39:14.546Z,19.92
2022-07-27T11:44:20.063Z,20.09
2022-07-27T11:49:28.955Z,20.30
2022-07-27T11:54:38.479Z,20.27
2022-07-27T11:59:45.125Z,19.94
2022-07-27T12:04:51.431Z,20.22
2022-07-27T12:10:02.297Z,20.13
2022-07-27T12:20:43.000Z,19.99
2022-07-27T12:25:50.651Z,20.09
2022-07-27T12:30:55.898Z,20.37
2022-07-27T12:36:02.735Z,20.57
2022-07-27T12:41:11.077Z,20.44
2022-07-27T12:46:17.290Z,21.17
2022-07-27T12:56:32.506Z,21.36
2022-07-27T13:01:37.506Z,21.58
2022-07-27T13:06:42.682Z,21.65
2022-07-27T13:11:50.611Z,21.20
2022-07-27T13:16:55.764Z,21.43
2022-07-27T13:22:01.448Z,21.40
2022-07-27T13:27:09.237Z,21.48
2022-07-27T13:32:14.496Z,21.66
2022-07-27T13:37:23.577Z,22.04
2022-07-27T13:42:31.414Z,22.24
2022-07-27T13:47:36.353Z,22.14
2022-07-27T13:52:41.309Z,21.99
2022-07-27T13:57:50.017Z,21.90
2022-07-27T14:02:55.020Z,21.90
2022-07-27T14:08:00.084Z,21.70
2022-07-27T14:13:11.672Z,21.88
2022-07-27T14:18:16.542Z,21.83
2022-07-27T14:23:21.780Z,21.77
2022-07-27T14:28:30.652Z,21.62
2022-07-27T14:33:36.493Z,21.50
2022-07-27T14:38:44.622Z,21.48
2022-07-27T14:43:52.224Z,21.49
2022-07-27T14:49:06.177Z,21.50
2022-07-27T14:54:11.805Z,21.45
2022-07-27T14:59:19.642Z,21.86
2022-07-27T15:04:24.642Z,21.74
2022-07-27T15:09:30.684Z,21.97
2022-07-27T15:14:39.890Z,22.14
2022-07-27T15:19:44.894Z,22.14
2022-07-27T15:24:49.896Z,22.09
2022-07-27T15:29:57.834Z,22.16
2022-07-27T15:35:02.775Z,21.71
2022-07-27T15:40:21.855Z,21.65
2022-07-27T15:45:29.581Z,21.54
2022-07-27T15:50:34.669Z,21.66
2022-07-27T15:55:40.652Z,21.61
2022-07-27T16:00:49.657Z,22.36
2022-07-27T16:05:55.009Z,23.21
2022-07-27T16:11:00.795Z,23.39
2022-07-27T16:16:21.217Z,23.23
2022-07-27T16:21:27.740Z,23.21
2022-07-27T16:26:32.927Z,23.43
2022-07-27T16:31:40.407Z,23.40
2022-07-27T16:36:45.586Z,23.70
2022-07-27T16:41:51.848Z,23.48
2022-07-27T16:46:59.490Z,23.56
2022-07-27T16:52:04.571Z,23.56
2022-07-27T16:57:10.984Z,23.63
2022-07-27T17:02:19.403Z,23.46
2022-07-27T17:07:24.620Z,23.81
2022-07-27T17:12:30.852Z,24.27
2022-07-27T17:17:41.419Z,24.68
2022-07-27T17:22:46.423Z,24.05
2022-07-27T17:27:52.774Z,24.30
2022-07-27T17:33:00.344Z,24.27
2022-07-27T17:38:07.302Z,24.21
2022-07-27T17:43:13.430Z,24.41
2022-07-27T17:48:23.666Z,23.90
2022-07-27T17:53:29.396Z,24.08
2022-07-27T17:58:34.273Z,24.11
2022-07-27T18:03:42.513Z,24.05
2022-07-27T18:08:47.843Z,24.12
2022-07-27T18:13:52.790Z,23.94
2022-07-27T18:19:01.356Z,23.87
2022-07-27T18:24:10.416Z,23.61
2022-07-27T18:29:16.403Z,23.30
2022-07-27T18:34:24.441Z,22.96
2022-07-27T18:39:33.952Z,22.73
2022-07-27T18:44:39.444Z,22.49
2022-07-27T18:49:46.943Z,22.06
2022-07-27T18:54:52.728Z,21.70
2022-07-27T18:59:58.103Z,21.36
2022-07-27T19:05:05.928Z,20.96
2022-07-27T19:10:12.965Z,20.68
2022-07-27T19:15:18.425Z,20.40
2022-07-27T19:20:26.003Z,20.15
2022-07-27T19:25:33.941Z,19.88
2022-07-27T19:30:39.270Z,19.56
2022-07-27T19:35:46.979Z,19.30
2022-07-27T19:40:52.223Z,19.11
2022-07-27T19:45:57.305Z,18.91
2022-07-27T19:51:07.045Z,18.70
2022-07-27T19:56:12.370Z,18.58
2022-07-27T20:01:17.810Z,18.55
2022-07-27T20:06:25.632Z,18.50
2022-07-27T20:11:31.991Z,18.43
2022-07-27T20:16:38.944Z,18.30
2022-07-27T20:21:46.589Z,18.01
2022-07-27T20:26:51.583Z,17.79
2022-07-27T20:31:56.699Z,17.64
2022-07-27T20:37:04.198Z,17.49
2022-07-27T20:42:09.293Z,17.27
2022-07-27T20:47:14.850Z,17.13
2022-07-27T20:52:22.557Z,17.04
2022-07-27T20:57:28.625Z,16.93
2022-07-27T21:02:33.821Z,16.87
2022-07-27T21:07:41.351Z,16.75
2022-07-27T21:12:47.204Z,16.62
2022-07-27T21:17:52.657Z,16.44
2022-07-27T21:23:15.130Z,16.43
2022-07-27T21:28:24.788Z,16.42
2022-07-27T21:33:30.090Z,16.40
2022-07-27T21:38:37.657Z,16.43
2022-07-27T21:43:42.771Z,16.39
2022-07-27T21:48:48.817Z,16.32
2022-07-27T21:53:56.980Z,16.19
2022-07-27T21:59:02.025Z,16.11
2022-07-27T22:04:07.253Z,16.06
2022-07-27T22:09:14.885Z,16.00
2022-07-27T22:14:19.943Z,15.96
2022-07-27T22:19:24.970Z,15.86
2022-07-27T22:24:32.589Z,15.75
2022-07-27T22:29:37.561Z,15.59
2022-07-27T22:34:42.505Z,15.60
2022-07-27T22:39:50.466Z,15.51
2022-07-27T22:44:55.749Z,15.28
2022-07-27T22:50:01.032Z,15.09
2022-07-27T22:55:09.746Z,14.92
2022-07-27T23:00:16.120Z,14.72
2022-07-27T23:05:21.556Z,14.63
2022-07-27T23:10:41.663Z,14.54
2022-07-27T23:15:47.993Z,14.41
2022-07-27T23:20:53.056Z,14.30
2022-07-27T23:26:00.448Z,14.18
2022-07-27T23:31:06.116Z,14.07
2022-07-27T23:36:12.287Z,13.98
2022-07-27T23:41:19.907Z,13.91
2022-07-27T23:46:25.006Z,13.78
2022-07-27T23:51:30.120Z,13.65
2022-07-27T23:56:37.681Z,13.55
